sensor_id;sensor_type;location;lat;lon;timestamp;P1;durP1;ratioP1;P2;durP2;ratioP2
33505;SDS011;19843;51.040;13.782;2023-11-19T00:00:07;6.93;;;3.83;;
33505;SDS011;19843;51.040;13.782;2023-11-19T00:02:38;7.72;;;4.30;;
33505;SDS011;19843;51.040;13.782;2023-11-19T00:05:07;6.40;;;4.10;;
33505;SDS011;19843;51.040;13.782;2023-11-19T00:07:36;7.32;;;3.92;;
33505;SDS011;19843;51.040;13.782;2023-11-19T00:10:06;7.90;;;4.40;;
33505;SDS011;19843;51.040;13.782;2023-11-19T00:12:36;7.05;;;4.25;;
33505;SDS011;19843;51.040;13.782;2023-11-19T00:15:05;9.98;;;3.95;;
33505;SDS011;19843;51.040;13.782;2023-11-19T00:17:37;7.35;;;4.38;;
33505;SDS011;19843;51.040;13.782;2023-11-19T00:20:08;5.97;;;5.18;;
33505;SDS011;19843;51.040;13.782;2023-11-19T00:22:36;7.20;;;4.70;;
33505;SDS011;19843;51.040;13.782;2023-11-19T00:25:14;6.88;;;4.97;;
33505;SDS011;19843;51.040;13.782;2023-11-19T00:27:43;7.78;;;4.65;;
33505;SDS011;19843;51.040;13.782;2023-11-19T00:30:11;9.38;;;5.45;;
33505;SDS011;19843;51.040;13.782;2023-11-19T00:32:40;6.10;;;4.22;;
33505;SDS011;19843;51.040;13.782;2023-11-19T00:35:09;7.60;;;4.57;;
33505;SDS011;19843;51.040;13.782;2023-11-19T00:37:40;8.45;;;4.07;;
33505;SDS011;19843;51.040;13.782;2023-11-19T00:40:09;7.38;;;3.88;;
33505;SDS011;19843;51.040;13.782;2023-11-19T00:42:37;6.82;;;4.15;;
33505;SDS011;19843;51.040;13.782;2023-11-19T00:45:05;5.10;;;4.15;;
33505;SDS011;19843;51.040;13.782;2023-11-19T00:47:36;6.03;;;4.40;;
33505;SDS011;19843;51.040;13.782;2023-11-19T00:50:04;6.20;;;3.80;;
33505;SDS011;19843;51.040;13.782;2023-11-19T00:52:36;7.78;;;4.78;;
33505;SDS011;19843;51.040;13.782;2023-11-19T00:55:05;6.95;;;4.18;;
33505;SDS011;19843;51.040;13.782;2023-11-19T00:57:34;4.95;;;4.20;;
33505;SDS011;19843;51.040;13.782;2023-11-19T01:00:01;6.40;;;4.55;;
33505;SDS011;19843;51.040;13.782;2023-11-19T01:02:35;6.65;;;4.28;;
33505;SDS011;19843;51.040;13.782;2023-11-19T01:05:03;6.90;;;3.67;;
33505;SDS011;19843;51.040;13.782;2023-11-19T01:07:30;6.43;;;3.85;;
33505;SDS011;19843;51.040;13.782;2023-11-19T01:09:59;7.65;;;4.20;;
33505;SDS011;19843;51.040;13.782;2023-11-19T01:12:29;5.68;;;4.53;;
33505;SDS011;19843;51.040;13.782;2023-11-19T01:14:57;5.65;;;4.25;;
33505;SDS011;19843;51.040;13.782;2023-11-19T01:17:25;5.60;;;4.28;;
33505;SDS011;19843;51.040;13.782;2023-11-19T01:19:52;5.15;;;3.85;;
33505;SDS011;19843;51.040;13.782;2023-11-19T01:22:20;4.25;;;3.47;;
33505;SDS011;19843;51.040;13.782;2023-11-19T01:24:47;5.05;;;4.05;;
33505;SDS011;19843;51.040;13.782;2023-11-19T01:27:16;5.40;;;3.42;;
33505;SDS011;19843;51.040;13.782;2023-11-19T01:29:44;6.22;;;3.38;;
33505;SDS011;19843;51.040;13.782;2023-11-19T01:32:11;4.10;;;2.85;;
33505;SDS011;19843;51.040;13.782;2023-11-19T01:34:39;4.47;;;3.33;;
33505;SDS011;19843;51.040;13.782;2023-11-19T01:37:07;6.50;;;3.42;;
33505;SDS011;19843;51.040;13.782;2023-11-19T01:39:35;6.15;;;3.30;;
33505;SDS011;19843;51.040;13.782;2023-11-19T01:42:03;4.57;;;3.00;;
33505;SDS011;19843;51.040;13.782;2023-11-19T01:44:32;4.78;;;3.30;;
33505;SDS011;19843;51.040;13.782;2023-11-19T01:47:00;3.60;;;3.10;;
33505;SDS011;19843;51.040;13.782;2023-11-19T01:49:30;4.13;;;3.22;;
33505;SDS011;19843;51.040;13.782;2023-11-19T01:51:59;4.22;;;3.00;;
33505;SDS011;19843;51.040;13.782;2023-11-19T01:54:27;3.10;;;2.60;;
33505;SDS011;19843;51.040;13.782;2023-11-19T01:56:55;3.42;;;2.60;;
33505;SDS011;19843;51.040;13.782;2023-11-19T01:59:24;4.13;;;2.65;;
33505;SDS011;19843;51.040;13.782;2023-11-19T02:01:54;5.38;;;2.72;;
33505;SDS011;19843;51.040;13.782;2023-11-19T02:04:26;4.13;;;2.60;;
33505;SDS011;19843;51.040;13.782;2023-11-19T02:06:56;4.25;;;2.65;;
33505;SDS011;19843;51.040;13.782;2023-11-19T02:09:25;3.70;;;2.13;;
33505;SDS011;19843;51.040;13.782;2023-11-19T02:11:53;2.75;;;2.05;;
33505;SDS011;19843;51.040;13.782;2023-11-19T02:14:22;3.90;;;2.10;;
33505;SDS011;19843;51.040;13.782;2023-11-19T02:16:54;4.30;;;2.00;;
33505;SDS011;19843;51.040;13.782;2023-11-19T02:19:21;4.25;;;2.75;;
33505;SDS011;19843;51.040;13.782;2023-11-19T02:21:49;1.88;;;1.75;;
33505;SDS011;19843;51.040;13.782;2023-11-19T02:24:16;2.55;;;1.83;;
33505;SDS011;19843;51.040;13.782;2023-11-19T02:26:52;2.30;;;1.70;;
33505;SDS011;19843;51.040;13.782;2023-11-19T02:29:33;2.72;;;1.80;;
33505;SDS011;19843;51.040;13.782;2023-11-19T02:32:01;1.73;;;1.50;;
33505;SDS011;19843;51.040;13.782;2023-11-19T02:34:29;2.47;;;1.60;;
33505;SDS011;19843;51.040;13.782;2023-11-19T02:36:57;4.28;;;1.77;;
33505;SDS011;19843;51.040;13.782;2023-11-19T02:39:25;2.65;;;1.77;;
33505;SDS011;19843;51.040;13.782;2023-11-19T02:41:52;2.15;;;1.60;;
33505;SDS011;19843;51.040;13.782;2023-11-19T02:44:20;1.95;;;1.77;;
33505;SDS011;19843;51.040;13.782;2023-11-19T02:46:49;2.05;;;1.50;;
33505;SDS011;19843;51.040;13.782;2023-11-19T02:49:17;2.03;;;1.42;;
33505;SDS011;19843;51.040;13.782;2023-11-19T02:51:45;2.05;;;1.30;;
33505;SDS011;19843;51.040;13.782;2023-11-19T02:54:12;1.55;;;1.45;;
33505;SDS011;19843;51.040;13.782;2023-11-19T02:56:42;1.80;;;1.50;;
33505;SDS011;19843;51.040;13.782;2023-11-19T02:59:09;1.75;;;1.48;;
33505;SDS011;19843;51.040;13.782;2023-11-19T03:01:54;2.20;;;1.55;;
33505;SDS011;19843;51.040;13.782;2023-11-19T03:04:22;2.53;;;1.50;;
33505;SDS011;19843;51.040;13.782;2023-11-19T03:06:50;1.63;;;1.48;;
33505;SDS011;19843;51.040;13.782;2023-11-19T03:09:19;1.30;;;1.20;;
33505;SDS011;19843;51.040;13.782;2023-11-19T03:11:47;1.73;;;1.58;;
33505;SDS011;19843;51.040;13.782;2023-11-19T03:14:14;1.90;;;1.30;;
33505;SDS011;19843;51.040;13.782;2023-11-19T03:16:44;2.17;;;1.30;;
33505;SDS011;19843;51.040;13.782;2023-11-19T03:19:14;1.65;;;1.33;;
33505;SDS011;19843;51.040;13.782;2023-11-19T03:21:51;1.92;;;1.20;;
33505;SDS011;19843;51.040;13.782;2023-11-19T03:24:18;1.77;;;1.33;;
33505;SDS011;19843;51.040;13.782;2023-11-19T03:26:47;2.45;;;1.35;;
33505;SDS011;19843;51.040;13.782;2023-11-19T03:29:16;2.35;;;1.30;;
33505;SDS011;19843;51.040;13.782;2023-11-19T03:31:43;4.25;;;1.50;;
33505;SDS011;19843;51.040;13.782;2023-11-19T03:34:11;1.60;;;1.50;;
33505;SDS011;19843;51.040;13.782;2023-11-19T03:36:40;1.92;;;1.00;;
33505;SDS011;19843;51.040;13.782;2023-11-19T03:39:08;1.30;;;1.15;;
33505;SDS011;19843;51.040;13.782;2023-11-19T03:41:36;2.42;;;1.30;;
33505;SDS011;19843;51.040;13.782;2023-11-19T03:44:06;1.55;;;1.38;;
33505;SDS011;19843;51.040;13.782;2023-11-19T03:46:34;3.08;;;1.25;;
33505;SDS011;19843;51.040;13.782;2023-11-19T03:49:02;1.27;;;0.95;;
33505;SDS011;19843;51.040;13.782;2023-11-19T03:51:30;1.58;;;1.48;;
33505;SDS011;19843;51.040;13.782;2023-11-19T03:54:00;1.77;;;1.38;;
33505;SDS011;19843;51.040;13.782;2023-11-19T03:56:27;1.70;;;1.60;;
33505;SDS011;19843;51.040;13.782;2023-11-19T03:58:55;1.52;;;1.27;;
33505;SDS011;19843;51.040;13.782;2023-11-19T04:01:23;1.67;;;1.50;;
33505;SDS011;19843;51.040;13.782;2023-11-19T04:03:51;1.70;;;1.58;;
33505;SDS011;19843;51.040;13.782;2023-11-19T04:06:18;2.67;;;1.90;;
33505;SDS011;19843;51.040;13.782;2023-11-19T04:08:47;2.42;;;1.83;;
33505;SDS011;19843;51.040;13.782;2023-11-19T04:11:17;1.75;;;1.60;;
33505;SDS011;19843;51.040;13.782;2023-11-19T04:13:44;1.92;;;1.38;;
33505;SDS011;19843;51.040;13.782;2023-11-19T04:16:12;2.08;;;1.65;;
33505;SDS011;19843;51.040;13.782;2023-11-19T04:18:41;3.50;;;2.05;;
33505;SDS011;19843;51.040;13.782;2023-11-19T04:21:08;2.90;;;1.85;;
33505;SDS011;19843;51.040;13.782;2023-11-19T04:23:36;4.05;;;1.95;;
33505;SDS011;19843;51.040;13.782;2023-11-19T04:26:04;5.88;;;2.20;;
33505;SDS011;19843;51.040;13.782;2023-11-19T04:28:37;1.77;;;1.42;;
33505;SDS011;19843;51.040;13.782;2023-11-19T04:31:04;2.17;;;1.90;;
33505;SDS011;19843;51.040;13.782;2023-11-19T04:33:32;2.47;;;2.10;;
33505;SDS011;19843;51.040;13.782;2023-11-19T04:36:00;2.67;;;2.10;;
33505;SDS011;19843;51.040;13.782;2023-11-19T04:38:28;2.15;;;1.95;;
33505;SDS011;19843;51.040;13.782;2023-11-19T04:40:56;3.55;;;2.10;;
33505;SDS011;19843;51.040;13.782;2023-11-19T04:43:24;2.90;;;2.05;;
33505;SDS011;19843;51.040;13.782;2023-11-19T04:45:53;2.75;;;1.80;;
33505;SDS011;19843;51.040;13.782;2023-11-19T04:48:20;2.20;;;2.00;;
33505;SDS011;19843;51.040;13.782;2023-11-19T04:50:48;2.20;;;1.80;;
33505;SDS011;19843;51.040;13.782;2023-11-19T04:53:17;3.13;;;2.08;;
33505;SDS011;19843;51.040;13.782;2023-11-19T04:55:44;2.08;;;1.70;;
33505;SDS011;19843;51.040;13.782;2023-11-19T04:58:12;3.03;;;2.30;;
33505;SDS011;19843;51.040;13.782;2023-11-19T05:00:40;2.83;;;1.60;;
33505;SDS011;19843;51.040;13.782;2023-11-19T05:03:08;2.28;;;1.70;;
33505;SDS011;19843;51.040;13.782;2023-11-19T05:05:36;2.70;;;1.77;;
33505;SDS011;19843;51.040;13.782;2023-11-19T05:08:04;1.88;;;1.73;;
33505;SDS011;19843;51.040;13.782;2023-11-19T05:10:32;1.65;;;1.42;;
33505;SDS011;19843;51.040;13.782;2023-11-19T05:13:00;2.33;;;1.90;;
33505;SDS011;19843;51.040;13.782;2023-11-19T05:15:27;2.28;;;1.52;;
33505;SDS011;19843;51.040;13.782;2023-11-19T05:17:55;2.35;;;1.98;;
33505;SDS011;19843;51.040;13.782;2023-11-19T05:20:24;2.00;;;1.75;;
33505;SDS011;19843;51.040;13.782;2023-11-19T05:22:51;2.75;;;2.13;;
33505;SDS011;19843;51.040;13.782;2023-11-19T05:25:19;1.85;;;1.65;;
33505;SDS011;19843;51.040;13.782;2023-11-19T05:27:47;2.47;;;2.00;;
33505;SDS011;19843;51.040;13.782;2023-11-19T05:30:14;6.15;;;3.17;;
33505;SDS011;19843;51.040;13.782;2023-11-19T05:32:42;2.88;;;2.28;;
33505;SDS011;19843;51.040;13.782;2023-11-19T05:35:10;2.38;;;1.95;;
33505;SDS011;19843;51.040;13.782;2023-11-19T05:37:39;1.95;;;1.75;;
33505;SDS011;19843;51.040;13.782;2023-11-19T05:40:07;2.47;;;1.98;;
33505;SDS011;19843;51.040;13.782;2023-11-19T05:42:41;1.95;;;1.75;;
33505;SDS011;19843;51.040;13.782;2023-11-19T05:45:10;2.13;;;1.90;;
33505;SDS011;19843;51.040;13.782;2023-11-19T05:47:39;3.15;;;2.03;;
33505;SDS011;19843;51.040;13.782;2023-11-19T05:50:07;3.45;;;2.50;;
33505;SDS011;19843;51.040;13.782;2023-11-19T05:52:36;4.15;;;2.35;;
33505;SDS011;19843;51.040;13.782;2023-11-19T05:55:05;3.15;;;2.40;;
33505;SDS011;19843;51.040;13.782;2023-11-19T05:57:36;3.38;;;2.50;;
33505;SDS011;19843;51.040;13.782;2023-11-19T06:00:12;3.45;;;2.67;;
33505;SDS011;19843;51.040;13.782;2023-11-19T06:02:42;3.05;;;2.30;;
33505;SDS011;19843;51.040;13.782;2023-11-19T06:05:09;3.95;;;2.67;;
33505;SDS011;19843;51.040;13.782;2023-11-19T06:07:37;4.30;;;2.65;;
33505;SDS011;19843;51.040;13.782;2023-11-19T06:10:07;2.95;;;2.65;;
33505;SDS011;19843;51.040;13.782;2023-11-19T06:12:36;2.60;;;2.10;;
33505;SDS011;19843;51.040;13.782;2023-11-19T06:15:05;3.05;;;2.13;;
33505;SDS011;19843;51.040;13.782;2023-11-19T06:17:34;3.38;;;2.70;;
33505;SDS011;19843;51.040;13.782;2023-11-19T06:20:03;3.00;;;2.25;;
33505;SDS011;19843;51.040;13.782;2023-11-19T06:22:31;3.20;;;2.08;;
33505;SDS011;19843;51.040;13.782;2023-11-19T06:24:59;3.45;;;2.33;;
33505;SDS011;19843;51.040;13.782;2023-11-19T06:27:28;2.67;;;2.03;;
33505;SDS011;19843;51.040;13.782;2023-11-19T06:29:55;3.65;;;2.40;;
33505;SDS011;19843;51.040;13.782;2023-11-19T06:32:24;2.45;;;1.98;;
33505;SDS011;19843;51.040;13.782;2023-11-19T06:34:51;3.13;;;2.10;;
33505;SDS011;19843;51.040;13.782;2023-11-19T06:37:19;2.60;;;2.28;;
33505;SDS011;19843;51.040;13.782;2023-11-19T06:39:46;3.22;;;1.67;;
33505;SDS011;19843;51.040;13.782;2023-11-19T06:42:14;3.33;;;2.53;;
33505;SDS011;19843;51.040;13.782;2023-11-19T06:44:43;1.85;;;1.75;;
33505;SDS011;19843;51.040;13.782;2023-11-19T06:47:10;2.83;;;1.92;;
33505;SDS011;19843;51.040;13.782;2023-11-19T06:49:38;2.10;;;1.90;;
33505;SDS011;19843;51.040;13.782;2023-11-19T06:52:05;1.65;;;1.48;;
33505;SDS011;19843;51.040;13.782;2023-11-19T06:54:33;1.88;;;1.55;;
33505;SDS011;19843;51.040;13.782;2023-11-19T06:57:00;2.53;;;1.63;;
33505;SDS011;19843;51.040;13.782;2023-11-19T06:59:29;2.00;;;1.80;;
33505;SDS011;19843;51.040;13.782;2023-11-19T07:01:58;1.60;;;1.45;;
33505;SDS011;19843;51.040;13.782;2023-11-19T07:04:26;2.20;;;1.60;;
33505;SDS011;19843;51.040;13.782;2023-11-19T07:06:53;1.67;;;1.50;;
33505;SDS011;19843;51.040;13.782;2023-11-19T07:09:21;2.22;;;1.35;;
33505;SDS011;19843;51.040;13.782;2023-11-19T07:11:49;3.72;;;1.60;;
33505;SDS011;19843;51.040;13.782;2023-11-19T07:14:18;2.45;;;1.50;;
33505;SDS011;19843;51.040;13.782;2023-11-19T07:16:45;2.15;;;1.67;;
33505;SDS011;19843;51.040;13.782;2023-11-19T07:19:14;2.03;;;1.70;;
33505;SDS011;19843;51.040;13.782;2023-11-19T07:21:42;2.17;;;1.33;;
33505;SDS011;19843;51.040;13.782;2023-11-19T07:24:11;1.50;;;1.23;;
33505;SDS011;19843;51.040;13.782;2023-11-19T07:26:41;1.73;;;1.30;;
33505;SDS011;19843;51.040;13.782;2023-11-19T07:29:10;2.28;;;1.95;;
33505;SDS011;19843;51.040;13.782;2023-11-19T07:31:38;2.17;;;1.92;;
33505;SDS011;19843;51.040;13.782;2023-11-19T07:34:05;2.70;;;1.40;;
33505;SDS011;19843;51.040;13.782;2023-11-19T07:36:36;2.78;;;1.60;;
33505;SDS011;19843;51.040;13.782;2023-11-19T07:39:04;2.45;;;1.63;;
33505;SDS011;19843;51.040;13.782;2023-11-19T07:41:32;1.40;;;1.17;;
33505;SDS011;19843;51.040;13.782;2023-11-19T07:44:00;1.38;;;1.15;;
33505;SDS011;19843;51.040;13.782;2023-11-19T07:46:28;4.82;;;1.65;;
33505;SDS011;19843;51.040;13.782;2023-11-19T07:48:56;1.25;;;1.02;;
33505;SDS011;19843;51.040;13.782;2023-11-19T07:51:24;1.48;;;1.33;;
33505;SDS011;19843;51.040;13.782;2023-11-19T07:53:52;1.83;;;1.50;;
33505;SDS011;19843;51.040;13.782;2023-11-19T07:56:20;2.85;;;2.53;;
33505;SDS011;19843;51.040;13.782;2023-11-19T07:58:48;3.45;;;2.40;;
33505;SDS011;19843;51.040;13.782;2023-11-19T08:01:15;1.25;;;1.15;;
33505;SDS011;19843;51.040;13.782;2023-11-19T08:03:43;2.80;;;2.10;;
33505;SDS011;19843;51.040;13.782;2023-11-19T08:06:24;2.17;;;1.95;;
33505;SDS011;19843;51.040;13.782;2023-11-19T08:08:53;1.88;;;1.50;;
33505;SDS011;19843;51.040;13.782;2023-11-19T08:11:21;2.72;;;1.75;;
33505;SDS011;19843;51.040;13.782;2023-11-19T08:13:48;1.58;;;1.48;;
33505;SDS011;19843;51.040;13.782;2023-11-19T08:16:16;1.77;;;1.30;;
33505;SDS011;19843;51.040;13.782;2023-11-19T08:18:43;4.28;;;1.45;;
33505;SDS011;19843;51.040;13.782;2023-11-19T08:21:11;2.45;;;1.48;;
33505;SDS011;19843;51.040;13.782;2023-11-19T08:23:39;2.45;;;1.92;;
33505;SDS011;19843;51.040;13.782;2023-11-19T08:26:08;1.98;;;1.63;;
33505;SDS011;19843;51.040;13.782;2023-11-19T08:28:36;1.75;;;1.35;;
33505;SDS011;19843;51.040;13.782;2023-11-19T08:31:04;1.77;;;1.40;;
33505;SDS011;19843;51.040;13.782;2023-11-19T08:33:32;3.47;;;1.45;;
33505;SDS011;19843;51.040;13.782;2023-11-19T08:35:59;2.88;;;1.55;;
33505;SDS011;19843;51.040;13.782;2023-11-19T08:38:27;1.73;;;1.40;;
33505;SDS011;19843;51.040;13.782;2023-11-19T08:40:57;2.60;;;1.70;;
33505;SDS011;19843;51.040;13.782;2023-11-19T08:43:28;2.35;;;1.80;;
33505;SDS011;19843;51.040;13.782;2023-11-19T08:45:57;2.03;;;1.50;;
33505;SDS011;19843;51.040;13.782;2023-11-19T08:48:24;4.05;;;2.45;;
33505;SDS011;19843;51.040;13.782;2023-11-19T08:50:52;2.92;;;2.00;;
33505;SDS011;19843;51.040;13.782;2023-11-19T08:53:20;3.63;;;2.55;;
33505;SDS011;19843;51.040;13.782;2023-11-19T08:55:48;4.75;;;2.30;;
33505;SDS011;19843;51.040;13.782;2023-11-19T08:58:16;3.13;;;2.20;;
33505;SDS011;19843;51.040;13.782;2023-11-19T09:00:45;2.28;;;2.05;;
33505;SDS011;19843;51.040;13.782;2023-11-19T09:03:13;2.83;;;1.60;;
33505;SDS011;19843;51.040;13.782;2023-11-19T09:05:41;1.90;;;1.23;;
33505;SDS011;19843;51.040;13.782;2023-11-19T09:08:08;1.38;;;1.27;;
33505;SDS011;19843;51.040;13.782;2023-11-19T09:10:37;1.58;;;1.40;;
33505;SDS011;19843;51.040;13.782;2023-11-19T09:13:05;1.77;;;1.30;;
33505;SDS011;19843;51.040;13.782;2023-11-19T09:15:32;2.35;;;1.63;;
33505;SDS011;19843;51.040;13.782;2023-11-19T09:18:01;5.10;;;2.92;;
33505;SDS011;19843;51.040;13.782;2023-11-19T09:20:31;2.78;;;2.17;;
33505;SDS011;19843;51.040;13.782;2023-11-19T09:23:04;1.52;;;1.40;;
33505;SDS011;19843;51.040;13.782;2023-11-19T09:25:32;2.58;;;1.60;;
33505;SDS011;19843;51.040;13.782;2023-11-19T09:28:03;1.77;;;1.30;;
33505;SDS011;19843;51.040;13.782;2023-11-19T09:30:30;3.42;;;1.40;;
33505;SDS011;19843;51.040;13.782;2023-11-19T09:33:01;2.38;;;1.55;;
33505;SDS011;19843;51.040;13.782;2023-11-19T09:35:29;1.52;;;1.35;;
33505;SDS011;19843;51.040;13.782;2023-11-19T09:37:57;2.78;;;1.70;;
33505;SDS011;19843;51.040;13.782;2023-11-19T09:40:26;1.58;;;1.48;;
33505;SDS011;19843;51.040;13.782;2023-11-19T09:42:55;2.88;;;1.77;;
33505;SDS011;19843;51.040;13.782;2023-11-19T09:45:23;3.25;;;1.90;;
33505;SDS011;19843;51.040;13.782;2023-11-19T09:47:55;2.58;;;1.83;;
33505;SDS011;19843;51.040;13.782;2023-11-19T09:50:25;2.42;;;1.70;;
33505;SDS011;19843;51.040;13.782;2023-11-19T09:52:53;2.60;;;2.13;;
33505;SDS011;19843;51.040;13.782;2023-11-19T09:55:21;3.60;;;2.55;;
33505;SDS011;19843;51.040;13.782;2023-11-19T09:57:48;2.45;;;2.25;;
33505;SDS011;19843;51.040;13.782;2023-11-19T10:00:18;4.07;;;2.30;;
33505;SDS011;19843;51.040;13.782;2023-11-19T10:02:48;2.28;;;1.98;;
33505;SDS011;19843;51.040;13.782;2023-11-19T10:05:17;1.80;;;1.50;;
33505;SDS011;19843;51.040;13.782;2023-11-19T10:07:48;1.85;;;1.17;;
33505;SDS011;19843;51.040;13.782;2023-11-19T10:10:16;2.45;;;0.90;;
33505;SDS011;19843;51.040;13.782;2023-11-19T10:12:45;1.10;;;0.70;;
33505;SDS011;19843;51.040;13.782;2023-11-19T10:15:17;0.70;;;0.70;;
33505;SDS011;19843;51.040;13.782;2023-11-19T10:17:48;1.60;;;0.80;;
33505;SDS011;19843;51.040;13.782;2023-11-19T10:20:16;1.65;;;0.98;;
33505;SDS011;19843;51.040;13.782;2023-11-19T10:22:44;0.60;;;0.60;;
33505;SDS011;19843;51.040;13.782;2023-11-19T10:25:23;0.77;;;0.75;;
33505;SDS011;19843;51.040;13.782;2023-11-19T10:27:52;0.75;;;0.75;;
33505;SDS011;19843;51.040;13.782;2023-11-19T10:30:20;3.47;;;0.77;;
33505;SDS011;19843;51.040;13.782;2023-11-19T10:33:02;1.58;;;0.63;;
33505;SDS011;19843;51.040;13.782;2023-11-19T10:35:31;1.15;;;0.68;;
33505;SDS011;19843;51.040;13.782;2023-11-19T10:37:59;1.40;;;0.90;;
33505;SDS011;19843;51.040;13.782;2023-11-19T10:40:41;1.40;;;1.10;;
33505;SDS011;19843;51.040;13.782;2023-11-19T10:43:08;0.70;;;0.70;;
33505;SDS011;19843;51.040;13.782;2023-11-19T10:45:36;0.82;;;0.60;;
33505;SDS011;19843;51.040;13.782;2023-11-19T10:48:06;1.02;;;0.70;;
33505;SDS011;19843;51.040;13.782;2023-11-19T10:50:34;0.93;;;0.70;;
33505;SDS011;19843;51.040;13.782;2023-11-19T10:53:03;0.77;;;0.70;;
33505;SDS011;19843;51.040;13.782;2023-11-19T10:55:32;0.60;;;0.60;;
33505;SDS011;19843;51.040;13.782;2023-11-19T10:58:03;0.85;;;0.70;;
33505;SDS011;19843;51.040;13.782;2023-11-19T11:00:34;0.60;;;0.60;;
33505;SDS011;19843;51.040;13.782;2023-11-19T11:03:08;2.90;;;0.73;;
33505;SDS011;19843;51.040;13.782;2023-11-19T11:05:38;0.65;;;0.65;;
33505;SDS011;19843;51.040;13.782;2023-11-19T11:08:06;0.50;;;0.50;;
33505;SDS011;19843;51.040;13.782;2023-11-19T11:10:38;1.92;;;0.68;;
33505;SDS011;19843;51.040;13.782;2023-11-19T11:13:24;0.60;;;0.60;;
33505;SDS011;19843;51.040;13.782;2023-11-19T11:15:55;0.63;;;0.63;;
33505;SDS011;19843;51.040;13.782;2023-11-19T11:18:24;4.15;;;1.10;;
33505;SDS011;19843;51.040;13.782;2023-11-19T11:20:54;1.45;;;1.05;;
33505;SDS011;19843;51.040;13.782;2023-11-19T11:23:36;0.77;;;0.60;;
33505;SDS011;19843;51.040;13.782;2023-11-19T11:26:18;0.40;;;0.40;;
33505;SDS011;19843;51.040;13.782;2023-11-19T11:29:03;0.75;;;0.55;;
33505;SDS011;19843;51.040;13.782;2023-11-19T11:31:36;2.83;;;0.60;;
33505;SDS011;19843;51.040;13.782;2023-11-19T11:37:10;3.20;;;0.80;;
33505;SDS011;19843;51.040;13.782;2023-11-19T11:39:46;1.20;;;0.73;;
33505;SDS011;19843;51.040;13.782;2023-11-19T11:42:30;2.55;;;0.70;;
33505;SDS011;19843;51.040;13.782;2023-11-19T11:44:59;0.88;;;0.65;;
33505;SDS011;19843;51.040;13.782;2023-11-19T11:50:53;0.95;;;0.55;;
33505;SDS011;19843;51.040;13.782;2023-11-19T11:53:22;4.88;;;1.63;;
33505;SDS011;19843;51.040;13.782;2023-11-19T11:55:57;1.50;;;1.08;;
33505;SDS011;19843;51.040;13.782;2023-11-19T11:58:32;3.17;;;0.95;;
33505;SDS011;19843;51.040;13.782;2023-11-19T12:01:05;0.70;;;0.70;;
33505;SDS011;19843;51.040;13.782;2023-11-19T12:03:33;2.03;;;0.63;;
33505;SDS011;19843;51.040;13.782;2023-11-19T12:06:01;0.60;;;0.60;;
33505;SDS011;19843;51.040;13.782;2023-11-19T12:08:29;0.60;;;0.60;;
33505;SDS011;19843;51.040;13.782;2023-11-19T12:10:57;1.48;;;0.80;;
33505;SDS011;19843;51.040;13.782;2023-11-19T12:13:29;1.73;;;0.70;;
33505;SDS011;19843;51.040;13.782;2023-11-19T12:16:14;4.15;;;1.00;;
33505;SDS011;19843;51.040;13.782;2023-11-19T12:18:42;1.40;;;0.75;;
33505;SDS011;19843;51.040;13.782;2023-11-19T12:21:09;2.83;;;1.20;;
33505;SDS011;19843;51.040;13.782;2023-11-19T12:23:44;1.00;;;0.90;;
33505;SDS011;19843;51.040;13.782;2023-11-19T12:26:21;1.67;;;0.80;;
33505;SDS011;19843;51.040;13.782;2023-11-19T12:28:58;1.58;;;0.60;;
33505;SDS011;19843;51.040;13.782;2023-11-19T12:31:27;0.73;;;0.73;;
33505;SDS011;19843;51.040;13.782;2023-11-19T12:33:55;1.33;;;0.88;;
33505;SDS011;19843;51.040;13.782;2023-11-19T12:36:22;1.60;;;1.10;;
33505;SDS011;19843;51.040;13.782;2023-11-19T12:38:50;4.30;;;0.90;;
33505;SDS011;19843;51.040;13.782;2023-11-19T12:41:18;3.88;;;1.30;;
33505;SDS011;19843;51.040;13.782;2023-11-19T12:43:49;1.90;;;1.05;;
33505;SDS011;19843;51.040;13.782;2023-11-19T12:46:18;0.63;;;0.63;;
33505;SDS011;19843;51.040;13.782;2023-11-19T12:48:48;3.33;;;1.10;;
33505;SDS011;19843;51.040;13.782;2023-11-19T12:51:17;1.90;;;1.08;;
33505;SDS011;19843;51.040;13.782;2023-11-19T12:53:49;3.53;;;1.23;;
33505;SDS011;19843;51.040;13.782;2023-11-19T12:56:20;2.70;;;0.90;;
33505;SDS011;19843;51.040;13.782;2023-11-19T12:58:49;1.52;;;0.70;;
33505;SDS011;19843;51.040;13.782;2023-11-19T13:01:17;2.22;;;1.40;;
33505;SDS011;19843;51.040;13.782;2023-11-19T13:03:46;2.45;;;1.02;;
33505;SDS011;19843;51.040;13.782;2023-11-19T13:06:16;2.28;;;1.42;;
33505;SDS011;19843;51.040;13.782;2023-11-19T13:08:47;2.63;;;0.90;;
33505;SDS011;19843;51.040;13.782;2023-11-19T13:11:29;2.42;;;1.08;;
33505;SDS011;19843;51.040;13.782;2023-11-19T13:13:58;3.58;;;1.63;;
33505;SDS011;19843;51.040;13.782;2023-11-19T13:16:27;2.58;;;1.20;;
33505;SDS011;19843;51.040;13.782;2023-11-19T13:18:55;2.47;;;0.90;;
33505;SDS011;19843;51.040;13.782;2023-11-19T13:21:25;1.40;;;0.80;;
33505;SDS011;19843;51.040;13.782;2023-11-19T13:23:53;2.20;;;1.08;;
33505;SDS011;19843;51.040;13.782;2023-11-19T13:26:21;2.17;;;0.73;;
33505;SDS011;19843;51.040;13.782;2023-11-19T13:28:48;2.58;;;1.75;;
33505;SDS011;19843;51.040;13.782;2023-11-19T13:31:16;3.80;;;0.80;;
33505;SDS011;19843;51.040;13.782;2023-11-19T13:33:44;3.25;;;1.48;;
33505;SDS011;19843;51.040;13.782;2023-11-19T13:36:12;1.73;;;1.27;;
33505;SDS011;19843;51.040;13.782;2023-11-19T13:38:44;1.65;;;0.90;;
33505;SDS011;19843;51.040;13.782;2023-11-19T13:41:11;3.85;;;1.48;;
33505;SDS011;19843;51.040;13.782;2023-11-19T13:43:40;5.43;;;1.83;;
33505;SDS011;19843;51.040;13.782;2023-11-19T13:46:08;4.18;;;1.58;;
33505;SDS011;19843;51.040;13.782;2023-11-19T13:48:36;3.80;;;1.38;;
33505;SDS011;19843;51.040;13.782;2023-11-19T13:51:04;4.75;;;0.93;;
33505;SDS011;19843;51.040;13.782;2023-11-19T13:53:32;5.88;;;2.47;;
33505;SDS011;19843;51.040;13.782;2023-11-19T13:56:05;3.67;;;1.30;;
33505;SDS011;19843;51.040;13.782;2023-11-19T13:58:33;4.88;;;1.20;;
33505;SDS011;19843;51.040;13.782;2023-11-19T14:01:01;6.82;;;1.40;;
33505;SDS011;19843;51.040;13.782;2023-11-19T14:03:29;4.28;;;0.98;;
33505;SDS011;19843;51.040;13.782;2023-11-19T14:05:57;2.17;;;1.00;;
33505;SDS011;19843;51.040;13.782;2023-11-19T14:08:25;2.97;;;1.67;;
33505;SDS011;19843;51.040;13.782;2023-11-19T14:10:52;9.63;;;2.17;;
33505;SDS011;19843;51.040;13.782;2023-11-19T14:13:23;5.88;;;1.50;;
33505;SDS011;19843;51.040;13.782;2023-11-19T14:15:51;1.35;;;0.88;;
33505;SDS011;19843;51.040;13.782;2023-11-19T14:18:18;7.30;;;1.52;;
33505;SDS011;19843;51.040;13.782;2023-11-19T14:20:46;3.78;;;1.10;;
33505;SDS011;19843;51.040;13.782;2023-11-19T14:23:13;3.05;;;0.63;;
33505;SDS011;19843;51.040;13.782;2023-11-19T14:25:41;1.42;;;0.90;;
33505;SDS011;19843;51.040;13.782;2023-11-19T14:28:09;4.57;;;2.05;;
33505;SDS011;19843;51.040;13.782;2023-11-19T14:30:38;4.97;;;1.73;;
33505;SDS011;19843;51.040;13.782;2023-11-19T14:33:07;8.65;;;1.63;;
33505;SDS011;19843;51.040;13.782;2023-11-19T14:35:35;1.50;;;0.90;;
33505;SDS011;19843;51.040;13.782;2023-11-19T14:38:03;2.65;;;1.38;;
33505;SDS011;19843;51.040;13.782;2023-11-19T14:40:33;1.90;;;0.93;;
33505;SDS011;19843;51.040;13.782;2023-11-19T14:43:04;3.05;;;1.42;;
33505;SDS011;19843;51.040;13.782;2023-11-19T14:45:31;4.70;;;1.20;;
33505;SDS011;19843;51.040;13.782;2023-11-19T14:48:11;4.95;;;0.82;;
33505;SDS011;19843;51.040;13.782;2023-11-19T14:50:39;4.80;;;0.95;;